createdAt,value
2023-01-21T00:00:34.082Z,28.00
2023-01-21T00:01:39.248Z,28.50
2023-01-21T00:02:41.984Z,25.25
2023-01-21T00:03:45.262Z,27.00
2023-01-21T00:04:48.127Z,28.00
2023-01-21T00:05:51.207Z,30.00
2023-01-21T00:06:53.872Z,27.00
2023-01-21T00:07:56.511Z,27.00
2023-01-21T00:09:01.967Z,27.25
2023-01-21T00:10:04.909Z,27.00
2023-01-21T00:11:09.882Z,26.25
2023-01-21T00:12:12.553Z,25.25
2023-01-21T00:13:15.403Z,24.00
2023-01-21T00:14:18.114Z,27.00
2023-01-21T00:15:20.797Z,27.00
2023-01-21T00:16:23.452Z,27.00
2023-01-21T00:17:26.152Z,25.00
2023-01-21T00:18:30.163Z,27.00
2023-01-21T00:19:33.168Z,27.25
2023-01-21T00:20:36.203Z,24.25
2023-01-21T00:21:38.957Z,26.75
2023-01-21T00:22:41.641Z,27.00
2023-01-21T00:23:47.066Z,27.00
2023-01-21T00:24:49.731Z,25.00
2023-01-21T00:26:01.481Z,24.00
2023-01-21T00:27:04.373Z,26.00
2023-01-21T00:28:10.974Z,26.25
2023-01-21T00:29:13.902Z,27.50
2023-01-21T00:30:17.093Z,26.00
2023-01-21T00:31:20.131Z,25.50
2023-01-21T00:32:22.807Z,26.50
2023-01-21T00:33:25.487Z,26.25
2023-01-21T00:34:28.191Z,27.00
2023-01-21T00:35:30.849Z,26.00
2023-01-21T00:36:33.521Z,25.75
2023-01-21T00:37:36.414Z,25.50
2023-01-21T00:38:39.914Z,27.00
2023-01-21T00:39:44.064Z,27.00
2023-01-21T00:40:46.694Z,24.00
2023-01-21T00:41:49.821Z,24.00
2023-01-21T00:42:52.717Z,24.50
2023-01-21T00:43:55.472Z,24.00
2023-01-21T00:44:58.525Z,25.25
2023-01-21T00:46:01.334Z,27.00
2023-01-21T00:47:04.014Z,24.50
2023-01-21T00:48:06.864Z,24.00
2023-01-21T00:49:09.581Z,24.00
2023-01-21T00:50:12.693Z,25.00
2023-01-21T00:51:15.384Z,24.00
2023-01-21T00:52:18.111Z,24.00
2023-01-21T00:53:20.795Z,22.00
2023-01-21T00:54:23.436Z,24.00
2023-01-21T00:55:26.228Z,26.00
2023-01-21T00:56:29.103Z,24.00
2023-01-21T00:57:31.896Z,24.75
2023-01-21T00:58:35.626Z,26.00
2023-01-21T00:59:38.394Z,24.50
2023-01-21T01:00:41.027Z,21.75
2023-01-21T01:01:43.743Z,23.00
2023-01-21T01:02:46.549Z,24.00
2023-01-21T01:03:50.875Z,26.50
2023-01-21T01:04:53.546Z,26.00
2023-01-21T01:05:56.163Z,24.00
2023-01-21T01:06:58.876Z,27.50
2023-01-21T01:08:01.564Z,26.00
2023-01-21T01:09:04.819Z,26.00
2023-01-21T01:10:07.966Z,24.50
2023-01-21T01:11:11.259Z,24.50
2023-01-21T01:12:13.937Z,27.00
2023-01-21T01:13:17.141Z,29.00
2023-01-21T01:14:19.864Z,26.75
2023-01-21T01:15:22.520Z,29.00
2023-01-21T01:16:25.287Z,27.00
2023-01-21T01:17:28.044Z,24.75
2023-01-21T01:18:35.465Z,25.00
2023-01-21T01:19:38.099Z,27.25
2023-01-21T01:20:44.328Z,26.25
2023-01-21T01:21:47.108Z,24.25
2023-01-21T01:22:49.735Z,25.00
2023-01-21T01:24:01.788Z,26.50
2023-01-21T01:25:04.553Z,27.00
2023-01-21T01:26:10.750Z,27.50
2023-01-21T01:27:13.486Z,27.00
2023-01-21T01:28:16.146Z,25.00
2023-01-21T01:29:19.656Z,23.00
2023-01-21T01:30:22.339Z,25.00
2023-01-21T01:31:25.119Z,27.00
2023-01-21T01:32:27.801Z,24.00
2023-01-21T01:33:30.455Z,26.00
2023-01-21T01:34:33.093Z,27.00
2023-01-21T01:35:35.749Z,27.00
2023-01-21T01:36:38.409Z,27.00
2023-01-21T01:37:41.070Z,26.75
2023-01-21T01:38:43.967Z,25.75
2023-01-21T01:39:47.907Z,25.25
2023-01-21T01:40:53.961Z,25.00
2023-01-21T01:41:56.683Z,26.00
2023-01-21T01:42:59.319Z,27.00
2023-01-21T01:44:21.293Z,27.00
2023-01-21T01:45:24.227Z,27.75
2023-01-21T01:46:32.322Z,28.75
2023-01-21T01:47:46.090Z,25.25
2023-01-21T01:49:01.642Z,26.25
2023-01-21T01:50:07.030Z,25.00
2023-01-21T01:51:10.680Z,24.00
2023-01-21T01:52:15.799Z,26.50
2023-01-21T01:53:20.687Z,27.00
2023-01-21T01:54:29.669Z,26.00
2023-01-21T01:55:36.661Z,26.50
2023-01-21T01:56:43.164Z,25.00
2023-01-21T01:57:51.095Z,26.50
2023-01-21T01:58:54.587Z,28.75
2023-01-21T01:59:58.412Z,28.00
2023-01-21T02:01:01.417Z,27.00
2023-01-21T02:02:10.647Z,23.50
2023-01-21T02:03:32.175Z,26.00
2023-01-21T02:04:43.745Z,24.00
2023-01-21T02:05:46.412Z,24.75
2023-01-21T02:06:51.274Z,24.00
2023-01-21T02:07:53.958Z,24.50
2023-01-21T02:08:57.650Z,27.00
2023-01-21T02:10:00.492Z,27.00
2023-01-21T02:11:03.905Z,25.00
2023-01-21T02:12:08.081Z,24.00
2023-01-21T02:13:11.421Z,25.00
2023-01-21T02:14:14.343Z,25.00
2023-01-21T02:15:17.339Z,25.00
2023-01-21T02:16:28.711Z,25.75
2023-01-21T02:17:41.107Z,26.00
2023-01-21T02:19:09.534Z,24.25
2023-01-21T02:20:12.181Z,26.00
2023-01-21T02:21:36.635Z,29.00
2023-01-21T02:23:16.702Z,25.00
2023-01-21T02:24:49.951Z,25.25
2023-01-21T02:25:52.590Z,26.00
2023-01-21T02:27:31.122Z,24.00
2023-01-21T02:28:54.158Z,23.50
2023-01-21T02:30:02.446Z,23.00
2023-01-21T02:31:15.704Z,25.00
2023-01-21T02:32:32.938Z,24.00
2023-01-21T02:33:56.930Z,23.75
2023-01-21T02:35:11.646Z,23.00
2023-01-21T02:36:49.610Z,24.75
2023-01-21T02:38:11.057Z,26.00
2023-01-21T02:39:40.004Z,25.75
2023-01-21T02:40:48.439Z,23.00
2023-01-21T02:41:56.761Z,24.00
2023-01-21T02:43:06.959Z,23.25
2023-01-21T02:44:31.156Z,24.00
2023-01-21T02:45:47.821Z,25.00
2023-01-21T02:47:00.406Z,23.75
2023-01-21T02:48:11.759Z,24.75
2023-01-21T02:49:23.609Z,25.00
2023-01-21T02:50:30.186Z,26.00
2023-01-21T02:51:32.801Z,27.00
2023-01-21T02:52:35.508Z,24.00
2023-01-21T02:53:38.147Z,26.00
2023-01-21T02:54:40.760Z,24.00
2023-01-21T02:55:43.660Z,24.50
2023-01-21T02:56:46.423Z,27.50
2023-01-21T02:57:57.448Z,27.25
2023-01-21T02:59:04.742Z,29.00
2023-01-21T03:00:34.354Z,25.00
2023-01-21T03:02:00.579Z,27.00
2023-01-21T03:03:18.558Z,24.00
2023-01-21T03:04:45.497Z,24.00
2023-01-21T03:06:29.207Z,23.75
2023-01-21T03:07:31.811Z,25.50
2023-01-21T03:09:01.835Z,28.50
2023-01-21T03:10:30.531Z,26.00
2023-01-21T03:11:33.801Z,25.00
2023-01-21T03:12:49.729Z,26.00
2023-01-21T03:14:37.589Z,26.00
2023-01-21T03:16:07.868Z,25.00
2023-01-21T03:17:39.092Z,24.00
2023-01-21T03:18:45.945Z,25.25
2023-01-21T03:20:05.268Z,26.50
2023-01-21T03:21:18.041Z,28.00
2023-01-21T03:22:26.739Z,28.75
2023-01-21T03:23:39.838Z,26.25
2023-01-21T03:24:46.348Z,26.50
2023-01-21T03:25:51.600Z,26.25
2023-01-21T03:26:58.241Z,28.75
2023-01-21T03:28:04.809Z,26.50
2023-01-21T03:29:14.491Z,27.00
2023-01-21T03:30:21.144Z,26.50
2023-01-21T03:31:30.026Z,26.50
2023-01-21T03:32:35.394Z,28.25
2023-01-21T03:33:41.349Z,26.50
2023-01-21T03:34:49.880Z,27.00
2023-01-21T03:35:56.314Z,26.25
2023-01-21T03:37:06.304Z,28.00
2023-01-21T03:38:22.738Z,27.00
2023-01-21T03:39:45.615Z,27.00
2023-01-21T03:40:57.936Z,28.00
2023-01-21T03:42:01.067Z,27.00
2023-01-21T03:43:04.334Z,26.75
2023-01-21T03:44:07.862Z,27.00
2023-01-21T03:45:11.578Z,25.25
2023-01-21T03:46:14.274Z,27.50
2023-01-21T03:47:16.869Z,28.75
2023-01-21T03:48:49.408Z,28.00
2023-01-21T03:50:02.151Z,29.50
2023-01-21T03:51:10.987Z,27.00
2023-01-21T03:52:15.003Z,27.00
2023-01-21T03:53:17.800Z,30.25
2023-01-21T03:54:20.710Z,27.50
2023-01-21T03:55:23.641Z,27.00
2023-01-21T03:56:27.083Z,25.25
2023-01-21T03:57:29.846Z,25.75
2023-01-21T03:58:32.502Z,27.25
2023-01-21T03:59:35.160Z,30.00
2023-01-21T04:00:37.907Z,29.00
2023-01-21T04:01:41.565Z,27.00
2023-01-21T04:02:44.336Z,27.00
2023-01-21T04:03:47.185Z,28.00
2023-01-21T04:04:50.114Z,26.00
2023-01-21T04:05:52.791Z,27.00
2023-01-21T04:06:55.446Z,26.50
2023-01-21T04:07:58.193Z,28.00
2023-01-21T04:09:00.855Z,25.25
2023-01-21T04:10:03.536Z,25.00
2023-01-21T04:11:06.414Z,25.00
2023-01-21T04:12:09.177Z,28.00
2023-01-21T04:13:11.845Z,29.00
2023-01-21T04:14:14.517Z,27.75
2023-01-21T04:15:17.187Z,25.25
2023-01-21T04:16:19.904Z,25.00
2023-01-21T04:17:22.594Z,24.75
2023-01-21T04:18:25.430Z,24.00
2023-01-21T04:19:28.173Z,25.00
2023-01-21T04:20:31.176Z,25.50
2023-01-21T04:21:33.807Z,25.00
2023-01-21T04:22:36.586Z,25.00
2023-01-21T04:23:39.237Z,27.50
2023-01-21T04:24:41.899Z,26.00
2023-01-21T04:25:44.620Z,28.50
2023-01-21T04:26:47.449Z,31.00
2023-01-21T04:27:50.291Z,28.00
2023-01-21T04:28:53.004Z,27.00
2023-01-21T04:29:55.636Z,28.75
2023-01-21T04:30:58.357Z,29.50
2023-01-21T04:32:01.181Z,29.00
2023-01-21T04:33:03.892Z,29.50
2023-01-21T04:34:06.599Z,28.50
2023-01-21T04:35:09.678Z,28.50
2023-01-21T04:36:12.323Z,29.00
2023-01-21T04:37:15.002Z,29.00
2023-01-21T04:38:17.664Z,28.50
2023-01-21T04:39:21.383Z,31.00
2023-01-21T04:40:24.221Z,29.75
2023-01-21T04:41:26.949Z,28.50
2023-01-21T04:42:29.645Z,31.50
2023-01-21T04:43:32.267Z,33.00
2023-01-21T04:44:34.981Z,31.50
2023-01-21T04:45:37.644Z,26.75
2023-01-21T04:46:40.312Z,28.50
2023-01-21T04:47:44.605Z,31.00
2023-01-21T04:48:47.273Z,28.50
2023-01-21T04:49:50.176Z,31.00
2023-01-21T04:50:52.813Z,29.00
2023-01-21T04:51:55.590Z,28.50
2023-01-21T04:52:58.280Z,31.00
2023-01-21T04:54:00.900Z,29.00
2023-01-21T04:55:03.555Z,29.25
2023-01-21T04:56:06.577Z,30.00
2023-01-21T04:57:09.212Z,29.25
2023-01-21T04:58:11.823Z,31.75
2023-01-21T04:59:14.658Z,32.00
2023-01-21T05:00:18.301Z,29.50
2023-01-21T05:01:21.076Z,31.75
2023-01-21T05:02:23.969Z,30.50
2023-01-21T05:03:26.783Z,31.00
2023-01-21T05:04:29.537Z,29.25
2023-01-21T05:05:32.169Z,31.00
2023-01-21T05:06:34.835Z,30.50
2023-01-21T05:07:37.719Z,31.00
2023-01-21T05:08:40.385Z,33.50
2023-01-21T05:09:43.337Z,32.25
2023-01-21T05:10:46.046Z,30.00
2023-01-21T05:11:48.968Z,32.00
2023-01-21T05:12:51.629Z,31.00
2023-01-21T05:13:54.333Z,30.00
2023-01-21T05:14:58.834Z,33.25
2023-01-21T05:16:10.903Z,34.00
2023-01-21T05:17:13.661Z,31.50
2023-01-21T05:18:16.343Z,32.50
2023-01-21T05:19:18.975Z,34.00
2023-01-21T05:20:21.720Z,34.00
2023-01-21T05:21:24.440Z,32.25
2023-01-21T05:22:27.120Z,34.00
2023-01-21T05:23:30.071Z,32.25
2023-01-21T05:24:32.765Z,31.00
2023-01-21T05:25:35.420Z,33.75
2023-01-21T05:26:38.200Z,33.00
2023-01-21T05:27:41.192Z,28.00
2023-01-21T05:28:43.854Z,29.50
2023-01-21T05:29:46.660Z,30.50
2023-01-21T05:30:49.336Z,32.50
2023-01-21T05:31:52.053Z,30.00
2023-01-21T05:32:55.793Z,31.00
2023-01-21T05:33:58.855Z,31.50
2023-01-21T05:35:01.531Z,31.75
2023-01-21T05:36:05.249Z,32.00
2023-01-21T05:37:07.909Z,31.00
2023-01-21T05:38:10.594Z,33.00
2023-01-21T05:39:13.411Z,30.00
2023-01-21T05:40:17.657Z,30.00
2023-01-21T05:41:20.549Z,31.50
2023-01-21T05:42:23.399Z,34.00
2023-01-21T05:43:26.541Z,31.25
2023-01-21T05:44:29.172Z,30.00
2023-01-21T05:45:31.797Z,28.00
2023-01-21T05:46:34.546Z,30.25
2023-01-21T05:47:37.371Z,30.00
2023-01-21T05:48:40.096Z,29.75
2023-01-21T05:49:42.750Z,34.50
2023-01-21T05:50:45.535Z,35.00
2023-01-21T05:51:48.210Z,34.00
2023-01-21T05:52:50.980Z,33.00
2023-01-21T05:53:53.651Z,32.25
2023-01-21T05:55:02.188Z,33.50
2023-01-21T05:56:05.393Z,34.00
2023-01-21T05:57:07.997Z,34.00
2023-01-21T05:58:10.650Z,34.00
2023-01-21T05:59:13.600Z,34.00
2023-01-21T06:00:17.010Z,33.75
2023-01-21T06:01:20.055Z,33.00
2023-01-21T06:02:22.796Z,32.00
2023-01-21T06:03:26.388Z,31.50
2023-01-21T06:04:31.693Z,31.00
2023-01-21T06:05:34.332Z,30.00
2023-01-21T06:06:36.977Z,29.75
2023-01-21T06:07:39.639Z,32.00
2023-01-21T06:08:42.357Z,31.50
2023-01-21T06:09:45.053Z,31.75
2023-01-21T06:10:47.874Z,31.00
2023-01-21T06:11:50.521Z,33.00
2023-01-21T06:12:53.627Z,33.00
2023-01-21T06:13:56.286Z,31.00
2023-01-21T06:15:00.476Z,31.00
2023-01-21T06:16:03.259Z,30.00
2023-01-21T06:17:06.075Z,31.00
2023-01-21T06:18:09.009Z,29.00
2023-01-21T06:19:11.767Z,31.50
2023-01-21T06:20:14.725Z,32.75
2023-01-21T06:21:17.433Z,32.00
2023-01-21T06:22:20.263Z,31.00
2023-01-21T06:23:22.899Z,29.00
2023-01-21T06:24:25.598Z,30.50
2023-01-21T06:25:29.005Z,33.00
2023-01-21T06:26:31.744Z,32.25
2023-01-21T06:27:35.312Z,33.00
2023-01-21T06:28:38.005Z,32.00
2023-01-21T06:29:40.685Z,33.75
2023-01-21T06:30:43.582Z,33.50
2023-01-21T06:31:46.402Z,33.00
2023-01-21T06:32:49.425Z,34.50
2023-01-21T06:33:52.090Z,34.00
2023-01-21T06:34:54.760Z,31.50
2023-01-21T06:35:57.449Z,31.50
2023-01-21T06:37:00.161Z,33.50
2023-01-21T06:38:02.827Z,34.00
2023-01-21T06:39:05.469Z,31.00
2023-01-21T06:40:09.694Z,29.25
2023-01-21T06:41:12.571Z,30.25
2023-01-21T06:42:15.755Z,31.50
2023-01-21T06:43:18.403Z,31.75
2023-01-21T06:44:21.131Z,30.00
2023-01-21T06:45:23.808Z,31.00
2023-01-21T06:46:26.484Z,30.50
2023-01-21T06:47:29.141Z,31.50
2023-01-21T06:48:31.871Z,31.75
2023-01-21T06:49:34.469Z,31.00
2023-01-21T06:50:39.957Z,30.50
2023-01-21T06:51:44.176Z,30.00
2023-01-21T06:52:48.541Z,29.00
2023-01-21T06:53:51.201Z,28.50
2023-01-21T06:54:53.827Z,28.75
2023-01-21T06:55:56.523Z,30.25
2023-01-21T06:57:00.206Z,31.00
2023-01-21T06:58:02.906Z,30.50
2023-01-21T06:59:06.012Z,30.50
2023-01-21T07:00:09.756Z,28.00
2023-01-21T07:01:12.535Z,29.00
2023-01-21T07:02:15.209Z,30.00
2023-01-21T07:03:17.846Z,29.00
2023-01-21T07:04:20.475Z,30.00
2023-01-21T07:05:23.174Z,28.75
2023-01-21T07:06:26.611Z,28.50
2023-01-21T07:07:29.414Z,29.50
2023-01-21T07:08:32.027Z,30.00
2023-01-21T07:09:34.827Z,30.00
2023-01-21T07:10:37.452Z,27.75
2023-01-21T07:11:40.068Z,26.00
2023-01-21T07:12:42.751Z,26.00
2023-01-21T07:13:45.338Z,26.50
2023-01-21T07:14:47.984Z,28.50
2023-01-21T07:15:50.657Z,26.00
2023-01-21T07:16:53.381Z,27.00
2023-01-21T07:17:56.012Z,28.00
2023-01-21T07:18:58.653Z,28.75
2023-01-21T07:20:01.298Z,28.00
2023-01-21T07:21:04.013Z,28.00
2023-01-21T07:22:06.715Z,26.50
2023-01-21T07:23:10.098Z,27.25
2023-01-21T07:24:12.790Z,26.50
2023-01-21T07:25:15.886Z,25.00
2023-01-21T07:26:18.752Z,26.25
2023-01-21T07:27:21.454Z,27.50
2023-01-21T07:28:24.410Z,30.25
2023-01-21T07:29:29.093Z,29.00
2023-01-21T07:30:31.749Z,29.00
2023-01-21T07:31:35.371Z,28.50
2023-01-21T07:32:38.105Z,26.50
2023-01-21T07:33:41.706Z,29.00
2023-01-21T07:34:44.428Z,27.00
2023-01-21T07:35:47.090Z,27.00
2023-01-21T07:36:49.817Z,30.25
2023-01-21T07:37:52.477Z,30.00
2023-01-21T07:38:55.641Z,31.50
2023-01-21T07:39:58.546Z,32.00
2023-01-21T07:41:01.241Z,32.00
2023-01-21T07:42:03.993Z,30.75
2023-01-21T07:43:06.648Z,31.50
2023-01-21T07:44:10.153Z,30.00
2023-01-21T07:45:12.889Z,34.00
2023-01-21T07:46:23.881Z,34.00
2023-01-21T07:47:26.706Z,34.25
2023-01-21T07:48:29.309Z,33.00
2023-01-21T07:49:32.000Z,35.00
2023-01-21T07:50:36.192Z,34.00
2023-01-21T07:51:38.834Z,30.00
2023-01-21T07:52:41.654Z,32.25
2023-01-21T07:53:44.293Z,31.00
2023-01-21T07:54:48.281Z,29.00
2023-01-21T07:55:50.944Z,29.00
2023-01-21T07:56:53.888Z,29.75
2023-01-21T07:58:00.162Z,26.75
2023-01-21T07:59:02.782Z,28.00
2023-01-21T08:00:06.020Z,25.50
2023-01-21T08:01:14.014Z,25.00
2023-01-21T08:02:16.818Z,24.75
2023-01-21T08:03:23.074Z,26.25
2023-01-21T08:04:26.543Z,25.00
2023-01-21T08:05:29.200Z,27.00
2023-01-21T08:06:31.852Z,28.00
2023-01-21T08:07:34.661Z,25.00
2023-01-21T08:08:37.333Z,26.75
2023-01-21T08:09:40.383Z,28.25
2023-01-21T08:10:43.030Z,26.50
2023-01-21T08:11:45.920Z,26.00
2023-01-21T08:12:48.715Z,26.75
2023-01-21T08:13:52.044Z,32.50
2023-01-21T08:14:54.866Z,39.25
2023-01-21T08:15:58.004Z,39.00
2023-01-21T08:17:01.534Z,40.00
2023-01-21T08:18:04.437Z,41.25
2023-01-21T08:19:07.154Z,41.75
2023-01-21T08:20:11.829Z,42.00
2023-01-21T08:21:14.468Z,42.00
2023-01-21T08:22:17.150Z,41.00
2023-01-21T08:23:20.820Z,39.00
2023-01-21T08:24:23.468Z,38.00
2023-01-21T08:25:26.652Z,35.00
2023-01-21T08:26:29.592Z,34.00
2023-01-21T08:27:33.537Z,31.50
2023-01-21T08:28:36.388Z,30.00
2023-01-21T08:29:39.047Z,29.50
2023-01-21T08:30:41.753Z,31.50
2023-01-21T08:31:44.465Z,35.00
2023-01-21T08:32:47.281Z,34.50
2023-01-21T08:33:49.921Z,34.00
2023-01-21T08:34:52.631Z,34.00
2023-01-21T08:36:00.671Z,37.50
2023-01-21T08:37:03.422Z,35.00
2023-01-21T08:38:06.432Z,37.00
2023-01-21T08:39:11.107Z,37.75
2023-01-21T08:40:14.190Z,37.00
2023-01-21T08:41:17.702Z,37.50
2023-01-21T08:42:20.450Z,35.25
2023-01-21T08:43:23.148Z,35.00
2023-01-21T08:44:26.026Z,35.50
2023-01-21T08:45:29.381Z,37.50
2023-01-21T08:46:32.056Z,39.00
2023-01-21T08:47:34.750Z,38.25
2023-01-21T08:48:39.204Z,39.50
2023-01-21T08:49:41.867Z,40.00
2023-01-21T08:50:44.685Z,42.50
2023-01-21T08:51:47.374Z,40.00
2023-01-21T08:52:57.032Z,39.00
2023-01-21T08:54:00.023Z,40.00
2023-01-21T08:55:02.701Z,40.00
2023-01-21T08:56:06.521Z,39.00
2023-01-21T08:57:09.250Z,36.00
2023-01-21T08:58:12.023Z,35.50
2023-01-21T08:59:14.700Z,37.00
2023-01-21T09:00:17.742Z,34.50
2023-01-21T09:01:20.393Z,34.50
2023-01-21T09:02:23.177Z,36.00
2023-01-21T09:03:26.332Z,37.00
2023-01-21T09:04:29.074Z,37.00
2023-01-21T09:05:31.802Z,36.00
2023-01-21T09:06:34.966Z,33.50
2023-01-21T09:07:37.693Z,35.00
2023-01-21T09:08:40.499Z,34.00
2023-01-21T09:09:43.304Z,34.00
2023-01-21T09:11:04.441Z,34.00
2023-01-21T09:12:08.307Z,34.75
2023-01-21T09:13:12.315Z,35.00
2023-01-21T09:14:15.037Z,35.25
2023-01-21T09:15:18.052Z,36.00
2023-01-21T09:16:23.406Z,34.00
2023-01-21T09:17:26.217Z,34.50
2023-01-21T09:18:28.948Z,31.50
2023-01-21T09:19:31.608Z,29.50
2023-01-21T09:20:34.362Z,34.00
2023-01-21T09:21:38.912Z,33.50
2023-01-21T09:22:41.558Z,37.00
2023-01-21T09:23:45.427Z,36.50
2023-01-21T09:24:48.039Z,36.50
2023-01-21T09:25:55.807Z,36.50
2023-01-21T09:26:58.537Z,36.00
2023-01-21T09:28:01.190Z,36.00
2023-01-21T09:29:04.114Z,37.25
2023-01-21T09:30:07.332Z,36.25
2023-01-21T09:31:13.311Z,36.50
2023-01-21T09:32:15.990Z,36.00
2023-01-21T09:33:18.698Z,36.50
2023-01-21T09:34:21.392Z,34.50
2023-01-21T09:35:24.011Z,33.00
2023-01-21T09:36:28.827Z,36.00
2023-01-21T09:37:31.440Z,34.00
2023-01-21T09:38:34.565Z,34.00
2023-01-21T09:39:37.232Z,33.25
2023-01-21T09:40:46.147Z,36.00
2023-01-21T09:41:57.324Z,34.00
2023-01-21T09:43:09.388Z,33.00
2023-01-21T09:44:27.880Z,34.00
2023-01-21T09:45:31.079Z,36.00
2023-01-21T09:46:41.872Z,38.00
2023-01-21T09:47:49.519Z,38.00
2023-01-21T09:48:53.175Z,38.75
2023-01-21T09:50:01.506Z,42.00
2023-01-21T09:51:12.734Z,39.00
2023-01-21T09:52:36.822Z,39.50
2023-01-21T09:53:49.632Z,36.00
2023-01-21T09:54:52.559Z,36.00
2023-01-21T09:55:59.757Z,39.50
2023-01-21T09:57:21.135Z,39.00
2023-01-21T09:58:47.152Z,36.50
2023-01-21T10:00:09.059Z,32.00
2023-01-21T10:01:31.760Z,32.00
2023-01-21T10:02:54.336Z,31.25
2023-01-21T10:04:22.276Z,30.00
2023-01-21T10:05:37.043Z,31.00
2023-01-21T10:06:39.651Z,31.25
2023-01-21T10:08:35.721Z,32.25
2023-01-21T10:10:01.211Z,33.25
2023-01-21T10:11:47.626Z,35.75
2023-01-21T10:13:15.320Z,34.00
2023-01-21T10:14:55.313Z,34.50
2023-01-21T10:16:08.481Z,37.25
2023-01-21T10:17:30.859Z,37.00
2023-01-21T10:18:37.224Z,37.00
2023-01-21T10:19:46.202Z,37.00
2023-01-21T10:21:14.865Z,37.00
2023-01-21T10:22:22.819Z,38.50
2023-01-21T10:23:42.723Z,38.50
2023-01-21T10:25:19.026Z,37.75
2023-01-21T10:26:22.763Z,35.00
2023-01-21T10:27:27.596Z,35.00
2023-01-21T10:28:31.765Z,34.00
2023-01-21T10:29:39.307Z,35.50
2023-01-21T10:30:49.761Z,35.50
2023-01-21T10:32:05.617Z,34.25
2023-01-21T10:33:20.194Z,34.00
2023-01-21T10:34:23.367Z,36.00
2023-01-21T10:35:42.159Z,35.00
2023-01-21T10:37:10.380Z,34.00
2023-01-21T10:38:44.847Z,33.25
2023-01-21T10:40:07.115Z,35.00
2023-01-21T10:41:46.335Z,34.50
2023-01-21T10:43:04.491Z,34.50
2023-01-21T10:44:43.929Z,35.00
2023-01-21T10:45:59.147Z,34.00
2023-01-21T10:47:14.637Z,35.00
2023-01-21T10:48:46.858Z,35.00
2023-01-21T10:50:13.005Z,34.50
2023-01-21T10:51:37.087Z,34.00
2023-01-21T10:53:05.019Z,34.00
2023-01-21T10:54:37.395Z,32.75
2023-01-21T10:55:48.917Z,33.25
2023-01-21T10:57:39.255Z,34.00
2023-01-21T10:58:50.420Z,34.00
2023-01-21T10:59:54.827Z,34.00
2023-01-21T11:01:02.124Z,35.00
2023-01-21T11:02:11.096Z,36.00
2023-01-21T11:03:20.851Z,36.00
2023-01-21T11:04:25.410Z,39.25
2023-01-21T11:05:28.742Z,41.50
2023-01-21T11:06:34.158Z,45.25
2023-01-21T11:07:41.240Z,49.00
2023-01-21T11:08:47.089Z,49.00
2023-01-21T11:09:49.959Z,51.00
2023-01-21T11:10:56.282Z,57.00
2023-01-21T11:11:59.001Z,59.50
2023-01-21T11:13:01.657Z,61.00
2023-01-21T11:14:04.755Z,58.00
2023-01-21T11:15:21.365Z,54.00
2023-01-21T11:16:46.459Z,47.25
2023-01-21T11:17:51.629Z,41.75
2023-01-21T11:18:54.909Z,39.75
2023-01-21T11:20:02.367Z,41.25
2023-01-21T11:21:20.653Z,41.00
2023-01-21T11:22:24.600Z,40.25
2023-01-21T11:23:36.359Z,40.00
2023-01-21T11:24:50.880Z,38.00
2023-01-21T11:25:53.587Z,36.00
2023-01-21T11:26:59.153Z,37.00
2023-01-21T11:28:01.795Z,38.00
2023-01-21T11:29:21.187Z,38.00
2023-01-21T11:30:54.850Z,36.50
2023-01-21T11:32:07.103Z,34.00
2023-01-21T11:33:22.142Z,36.50
2023-01-21T11:34:24.910Z,36.00
2023-01-21T11:35:28.081Z,34.50
2023-01-21T11:36:30.798Z,36.00
2023-01-21T11:37:35.114Z,37.00
2023-01-21T11:38:41.069Z,36.00
2023-01-21T11:39:54.755Z,34.00
2023-01-21T11:41:24.267Z,34.00
2023-01-21T11:42:27.588Z,33.00
2023-01-21T11:44:08.038Z,33.50
2023-01-21T11:45:32.334Z,32.50
2023-01-21T11:46:44.544Z,32.50
2023-01-21T11:47:52.073Z,34.00
2023-01-21T11:49:10.368Z,33.50
2023-01-21T11:50:29.219Z,33.25
2023-01-21T11:51:31.886Z,32.00
2023-01-21T11:52:34.542Z,31.00
2023-01-21T11:53:37.232Z,33.25
2023-01-21T11:54:43.060Z,33.00
2023-01-21T11:55:58.247Z,32.50
2023-01-21T11:57:04.463Z,33.00
2023-01-21T11:58:07.977Z,36.00
2023-01-21T11:59:34.752Z,37.00
2023-01-21T12:00:39.587Z,34.00
2023-01-21T12:01:42.867Z,33.50
2023-01-21T12:02:53.312Z,30.50
2023-01-21T12:04:01.672Z,28.00
2023-01-21T12:05:12.786Z,29.25
2023-01-21T12:06:26.546Z,30.50
2023-01-21T12:07:35.103Z,31.75
2023-01-21T12:08:41.394Z,30.50
2023-01-21T12:09:55.878Z,30.75
2023-01-21T12:11:04.876Z,29.00
2023-01-21T12:12:16.912Z,31.75
2023-01-21T12:13:59.975Z,30.50
2023-01-21T12:15:19.198Z,27.50
2023-01-21T12:16:26.348Z,28.50
2023-01-21T12:18:06.393Z,30.00
2023-01-21T12:19:34.337Z,28.00
2023-01-21T12:20:44.423Z,27.00
2023-01-21T12:21:53.239Z,27.00
2023-01-21T12:23:25.171Z,30.50
2023-01-21T12:24:46.304Z,31.75
2023-01-21T12:26:09.258Z,34.00
2023-01-21T12:27:45.321Z,34.00
2023-01-21T12:29:15.397Z,33.50
2023-01-21T12:30:34.072Z,32.75
2023-01-21T12:31:43.812Z,33.50
2023-01-21T12:32:52.502Z,33.00
2023-01-21T12:34:05.153Z,31.00
2023-01-21T12:35:27.796Z,30.00
2023-01-21T12:36:40.110Z,30.75
2023-01-21T12:37:44.028Z,30.25
2023-01-21T12:39:07.045Z,28.00
2023-01-21T12:40:44.245Z,30.50
2023-01-21T12:41:56.163Z,31.75
2023-01-21T12:43:04.365Z,30.00
2023-01-21T12:44:28.776Z,31.00
2023-01-21T12:45:45.937Z,34.00
2023-01-21T12:46:51.984Z,35.75
2023-01-21T12:48:16.943Z,34.50
2023-01-21T12:49:50.292Z,33.00
2023-01-21T12:51:09.775Z,33.75
2023-01-21T12:52:23.903Z,36.50
2023-01-21T12:53:58.434Z,37.50
2023-01-21T12:55:21.979Z,38.00
2023-01-21T12:56:32.247Z,40.00
2023-01-21T12:57:53.657Z,39.75
2023-01-21T12:59:12.608Z,33.25
2023-01-21T13:00:19.360Z,33.00
2023-01-21T13:01:53.418Z,31.00
2023-01-21T13:03:17.343Z,27.25
2023-01-21T13:04:47.640Z,24.00
2023-01-21T13:06:02.445Z,29.75
2023-01-21T13:07:26.870Z,31.00
2023-01-21T13:08:55.470Z,35.00
2023-01-21T13:10:21.084Z,36.00
2023-01-21T13:11:44.040Z,36.75
2023-01-21T13:12:52.997Z,36.25
2023-01-21T13:14:00.817Z,36.00
2023-01-21T13:15:28.728Z,36.00
2023-01-21T13:16:33.617Z,28.25
2023-01-21T13:17:41.370Z,25.50
2023-01-21T13:18:48.440Z,30.00
2023-01-21T13:19:51.642Z,28.00
2023-01-21T13:20:59.687Z,28.00
2023-01-21T13:22:09.824Z,25.00
2023-01-21T13:23:38.567Z,28.00
2023-01-21T13:25:21.386Z,24.50
2023-01-21T13:26:31.949Z,25.75
2023-01-21T13:28:00.327Z,27.50
2023-01-21T13:29:02.925Z,23.75
2023-01-21T13:30:30.563Z,24.50
2023-01-21T13:31:53.011Z,25.50
2023-01-21T13:33:20.752Z,28.00
2023-01-21T13:34:29.641Z,29.00
2023-01-21T13:35:43.258Z,31.50
2023-01-21T13:36:48.892Z,28.00
2023-01-21T13:38:09.813Z,29.25
2023-01-21T13:39:30.440Z,27.00
2023-01-21T13:40:54.015Z,27.00
2023-01-21T13:42:17.504Z,25.00
2023-01-21T13:43:26.171Z,27.50
2023-01-21T13:44:58.223Z,27.00
2023-01-21T13:46:29.032Z,24.00
2023-01-21T13:47:34.541Z,23.00
2023-01-21T13:49:01.223Z,24.50
2023-01-21T13:50:21.878Z,22.00
2023-01-21T13:51:49.813Z,22.00
2023-01-21T13:53:10.865Z,22.00
2023-01-21T13:54:30.605Z,20.00
2023-01-21T13:55:48.753Z,20.00
2023-01-21T13:57:23.389Z,21.00
2023-01-21T13:58:38.445Z,20.50
2023-01-21T13:59:51.058Z,18.00
2023-01-21T14:01:06.462Z,17.00
2023-01-21T14:02:22.514Z,17.00
2023-01-21T14:03:55.874Z,16.00
2023-01-21T14:05:13.120Z,13.50
2023-01-21T14:06:23.641Z,14.00
2023-01-21T14:07:33.043Z,14.00
2023-01-21T14:08:45.035Z,14.00
2023-01-21T14:10:19.929Z,14.00
2023-01-21T14:11:27.415Z,13.00
2023-01-21T14:14:45.001Z,13.50
2023-01-21T14:16:07.943Z,13.00
2023-01-21T14:17:25.601Z,11.75
2023-01-21T14:18:28.199Z,13.50
2023-01-21T14:19:55.733Z,13.25
2023-01-21T14:21:35.751Z,13.75
2023-01-21T14:22:44.363Z,13.00
2023-01-21T14:24:00.268Z,10.00
2023-01-21T14:25:17.748Z,13.00
2023-01-21T14:26:49.145Z,13.00
2023-01-21T14:28:12.432Z,13.00
2023-01-21T14:29:15.066Z,16.00
2023-01-21T14:30:27.128Z,13.00
2023-01-21T14:32:04.926Z,16.00
2023-01-21T14:33:32.128Z,12.25
2023-01-21T14:34:41.764Z,13.00
2023-01-21T14:36:07.611Z,13.00
2023-01-21T14:37:19.650Z,14.75
2023-01-21T14:38:42.586Z,14.00
2023-01-21T14:40:00.318Z,13.50
2023-01-21T14:41:08.814Z,10.00
2023-01-21T14:42:19.914Z,9.50
2023-01-21T14:43:31.553Z,15.50
2023-01-21T14:44:40.965Z,18.75
2023-01-21T14:45:55.965Z,20.50